Time;durP1;ratioP1;P1;durP2;ratioP2;P2;SDS_P1;SDS_P2;PMS_P1;PMS_P2;Temp;Humidity;BMP_temperature;BMP_pressure;BME280_temperature;BME280_humidity;BME280_pressure;Samples;Min_cycle;Max_cycle;Signal;HPM_P1;HPM_P2
2020/12/13 00:01:26;;;;;;;44.53;30.90;;;8.80;99.90;;;;;;5094640;28;20168;-66
2020/12/13 00:03:52;;;;;;;45.27;29.50;;;8.90;99.90;;;;;;5094590;28;20168;-66
2020/12/13 00:06:17;;;;;;;42.57;29.00;;;8.90;99.90;;;;;;5094396;28;20390;-66
2020/12/13 00:08:43;;;;;;;40.37;28.07;;;8.80;99.90;;;;;;5094263;28;20162;-66
2020/12/13 00:11:08;;;;;;;40.00;27.47;;;8.80;99.90;;;;;;5093413;28;20667;-66
2020/12/13 00:13:34;;;;;;;46.73;29.13;;;8.90;99.90;;;;;;5094198;28;20159;-66
2020/12/13 00:15:59;;;;;;;41.00;27.57;;;8.90;99.90;;;;;;5093307;28;20239;-66
2020/12/13 00:18:25;;;;;;;39.40;25.87;;;8.90;99.90;;;;;;5094059;28;20159;-66
2020/12/13 00:20:50;;;;;;;41.43;28.50;;;8.80;99.90;;;;;;5074171;28;20206;-66
2020/12/13 00:23:16;;;;;;;29.83;23.87;;;8.90;99.90;;;;;;5073910;28;20187;-66
2020/12/13 00:25:41;;;;;;;33.67;24.40;;;8.80;99.90;;;;;;5073839;28;20206;-66
2020/12/13 00:28:07;;;;;;;30.30;22.43;;;8.90;99.90;;;;;;5077504;28;20171;-66
2020/12/13 00:30:32;;;;;;;32.87;21.90;;;8.90;99.90;;;;;;5093785;28;20193;-66
2020/12/13 00:32:58;;;;;;;27.97;21.67;;;8.80;99.90;;;;;;5093718;28;20198;-66
2020/12/13 00:35:23;;;;;;;27.20;20.53;;;8.90;99.90;;;;;;5094001;28;20158;-66
2020/12/13 00:37:51;;;;;;;35.27;22.03;;;8.90;99.90;;;;;;5093792;28;20162;-66
2020/12/13 00:40:17;;;;;;;28.30;20.77;;;8.80;99.90;;;;;;5093656;28;20166;-66
2020/12/13 00:42:42;;;;;;;26.90;19.33;;;8.80;99.90;;;;;;5092427;28;20394;-66
2020/12/13 00:45:08;;;;;;;24.73;17.80;;;8.80;99.90;;;;;;5092592;28;20227;-66
2020/12/13 00:47:33;;;;;;;28.37;19.13;;;8.80;99.90;;;;;;5093538;28;20164;-66
2020/12/13 00:49:59;;;;;;;28.57;19.80;;;8.90;99.90;;;;;;5081183;28;20183;-66
2020/12/13 00:52:24;;;;;;;30.00;21.47;;;8.80;99.90;;;;;;5073400;28;20238;-66
2020/12/13 00:54:50;;;;;;;27.53;20.43;;;8.80;99.90;;;;;;5073182;28;20551;-66
2020/12/13 00:57:15;;;;;;;26.70;18.30;;;8.80;99.90;;;;;;5073198;28;20157;-66
2020/12/13 00:59:41;;;;;;;28.10;19.70;;;8.80;99.90;;;;;;5073046;28;20198;-66
2020/12/13 01:02:06;;;;;;;25.10;19.03;;;8.80;99.90;;;;;;5076795;28;20228;-66
2020/12/13 01:04:34;;;;;;;27.47;19.70;;;8.80;99.90;;;;;;5093652;28;20159;-66
2020/12/13 01:07:04;;;;;;;25.70;19.07;;;8.80;99.90;;;;;;5093075;28;20167;-66
2020/12/13 01:09:30;;;;;;;26.50;19.47;;;8.80;99.90;;;;;;5092218;28;20736;-66
2020/12/13 01:11:55;;;;;;;27.63;20.83;;;8.80;99.90;;;;;;5093120;28;20452;-66
2020/12/13 01:14:21;;;;;;;28.23;20.90;;;8.80;99.90;;;;;;5093171;28;20188;-66
2020/12/13 01:16:47;;;;;;;29.83;22.17;;;8.80;99.90;;;;;;5093252;28;20156;-66
2020/12/13 01:19:12;;;;;;;28.50;21.47;;;8.80;99.90;;;;;;5089332;28;20424;-66
2020/12/13 01:21:38;;;;;;;31.50;21.97;;;8.80;99.90;;;;;;5092631;28;20208;-65
2020/12/13 01:24:04;;;;;;;33.80;22.10;;;8.80;99.90;;;;;;5093051;28;20238;-66
2020/12/13 01:26:29;;;;;;;32.50;22.87;;;8.80;99.90;;;;;;5092907;28;20628;-66
2020/12/13 01:28:55;;;;;;;30.00;21.90;;;8.80;99.90;;;;;;5092946;28;20167;-66
2020/12/13 01:31:22;;;;;;;31.87;22.57;;;8.80;99.90;;;;;;5092933;28;20206;-66
2020/12/13 01:33:50;;;;;;;34.67;23.70;;;8.80;99.90;;;;;;5091825;28;20151;-66
2020/12/13 01:36:18;;;;;;;31.63;20.33;;;8.80;99.90;;;;;;5086329;28;20418;-66
2020/12/13 01:38:44;;;;;;;28.43;21.47;;;8.80;99.90;;;;;;5071760;28;20420;-66
2020/12/13 01:41:10;;;;;;;34.37;24.43;;;8.80;99.90;;;;;;5072703;28;20399;-66
2020/12/13 01:43:36;;;;;;;40.03;24.47;;;8.80;99.90;;;;;;5071509;28;20398;-66
2020/12/13 01:46:02;;;;;;;37.60;24.17;;;8.90;99.90;;;;;;5072853;28;20394;-66
2020/12/13 01:48:28;;;;;;;38.37;25.77;;;8.90;99.90;;;;;;5072645;28;20159;-66
2020/12/13 01:51:19;;;;;;;38.10;26.20;;;8.90;99.90;;;;;;5072802;28;20401;-66
2020/12/13 01:53:45;;;;;;;40.63;25.77;;;8.80;99.90;;;;;;5082973;28;20417;-66
2020/12/13 01:56:12;;;;;;;40.20;27.97;;;8.80;99.90;;;;;;5072680;28;20393;-66
2020/12/13 01:58:38;;;;;;;49.90;29.87;;;8.90;99.90;;;;;;5072858;28;20900;-66
2020/12/13 02:01:06;;;;;;;43.10;27.87;;;8.80;99.90;;;;;;5072419;28;20409;-66
2020/12/13 02:06:22;;;;;;;46.13;30.07;;;8.80;99.90;;;;;;5131235;27;21084;-66
2020/12/13 02:08:49;;;;;;;47.17;29.60;;;8.80;99.90;;;;;;5129987;28;20887;-66
2020/12/13 02:11:15;;;;;;;46.97;30.00;;;8.90;99.90;;;;;;5117757;27;20447;-66
2020/12/13 02:13:41;;;;;;;49.43;30.00;;;8.90;99.90;;;;;;5111076;28;20380;-66
2020/12/13 02:16:07;;;;;;;53.03;32.40;;;8.90;99.90;;;;;;5110241;28;20929;-66
2020/12/13 02:18:34;;;;;;;50.17;31.30;;;8.90;99.90;;;;;;5109212;28;20201;-66
2020/12/13 02:21:01;;;;;;;50.03;32.87;;;8.90;99.90;;;;;;5111360;28;20517;-66
2020/12/13 02:23:28;;;;;;;52.37;34.17;;;8.90;99.90;;;;;;5131142;27;20700;-66
2020/12/13 02:25:53;;;;;;;55.90;35.57;;;8.90;99.90;;;;;;5131048;27;20443;-66
2020/12/13 02:28:19;;;;;;;49.60;33.43;;;8.80;99.90;;;;;;5116324;27;20400;-66
2020/12/13 02:30:44;;;;;;;51.83;32.17;;;8.80;99.90;;;;;;5110209;28;20162;-66
2020/12/13 02:33:10;;;;;;;53.07;33.67;;;8.80;99.90;;;;;;5110480;28;20166;-66
2020/12/13 02:35:36;;;;;;;48.50;33.30;;;8.80;99.90;;;;;;5110119;28;20158;-66
2020/12/13 02:38:01;;;;;;;59.40;35.17;;;8.80;99.90;;;;;;5110057;28;20159;-66
2020/12/13 02:40:27;;;;;;;56.60;35.43;;;8.80;99.90;;;;;;5108949;28;20159;-66
2020/12/13 02:42:52;;;;;;;54.50;34.27;;;8.90;99.90;;;;;;5110235;28;20246;-66
2020/12/13 02:45:18;;;;;;;54.20;35.27;;;8.90;99.90;;;;;;5110420;28;20272;-66
2020/12/13 02:47:43;;;;;;;53.27;35.23;;;8.90;99.90;;;;;;5109958;28;20238;-66
2020/12/13 02:50:09;;;;;;;51.10;35.30;;;8.90;99.90;;;;;;5109822;28;20161;-66
2020/12/13 02:52:34;;;;;;;57.30;34.97;;;8.90;99.90;;;;;;5123913;28;20252;-66
2020/12/13 02:55:00;;;;;;;56.53;33.17;;;8.90;99.90;;;;;;5128477;27;20328;-66
2020/12/13 02:57:25;;;;;;;60.43;38.97;;;8.90;99.90;;;;;;5130572;27;20218;-66
2020/12/13 02:59:51;;;;;;;57.63;35.67;;;8.90;99.90;;;;;;5130101;27;20211;-66
2020/12/13 03:02:16;;;;;;;55.60;34.90;;;8.90;99.90;;;;;;5116010;27;20580;-66
2020/12/13 03:04:42;;;;;;;55.53;35.03;;;8.90;99.90;;;;;;5109358;28;20198;-66
2020/12/13 03:07:09;;;;;;;58.63;40.27;;;8.90;99.90;;;;;;5109807;28;20162;-66
2020/12/13 03:09:35;;;;;;;55.83;37.47;;;8.90;99.90;;;;;;5109534;28;20250;-66
2020/12/13 03:12:01;;;;;;;56.83;36.50;;;8.90;99.90;;;;;;5109645;28;20380;-66
2020/12/13 03:14:27;;;;;;;54.47;35.77;;;8.90;99.90;;;;;;5109361;28;20454;-66
2020/12/13 03:16:52;;;;;;;55.43;36.50;;;8.90;99.90;;;;;;5100122;28;20158;-66
2020/12/13 03:19:18;;;;;;;53.87;36.70;;;8.90;99.90;;;;;;5096308;28;20242;-66
2020/12/13 03:21:43;;;;;;;57.83;35.73;;;8.90;99.90;;;;;;5102321;28;20204;-66
2020/12/13 03:24:10;;;;;;;64.07;40.40;;;8.90;99.90;;;;;;5104719;28;20195;-66
2020/12/13 03:26:36;;;;;;;59.33;37.33;;;8.90;99.90;;;;;;5095657;28;20193;-66
2020/12/13 03:29:02;;;;;;;54.13;35.87;;;8.90;99.90;;;;;;5095528;28;20425;-66
2020/12/13 03:31:27;;;;;;;53.13;35.77;;;8.90;99.90;;;;;;5095828;28;20155;-66
2020/12/13 03:33:53;;;;;;;53.03;34.70;;;9.00;99.90;;;;;;5095569;28;20527;-66
2020/12/13 03:36:18;;;;;;;50.60;34.73;;;8.90;99.90;;;;;;5109383;28;20228;-66
2020/12/13 03:38:44;;;;;;;53.57;35.60;;;8.90;99.90;;;;;;5115791;28;20751;-66
2020/12/13 03:41:09;;;;;;;51.77;35.33;;;8.90;99.90;;;;;;5115816;28;20160;-66
2020/12/13 03:43:35;;;;;;;52.17;33.97;;;9.00;99.90;;;;;;5116128;28;20589;-66
2020/12/13 03:46:00;;;;;;;51.23;35.50;;;8.90;99.90;;;;;;5115507;28;20196;-66
2020/12/13 03:48:26;;;;;;;54.03;36.87;;;8.90;99.90;;;;;;5115560;28;20553;-66
2020/12/13 03:50:51;;;;;;;59.50;37.87;;;9.00;99.90;;;;;;5113595;27;20595;-66
2020/12/13 03:53:17;;;;;;;55.37;35.27;;;9.00;99.90;;;;;;5110123;28;20254;-65
2020/12/13 03:55:42;;;;;;;50.77;36.10;;;8.90;99.90;;;;;;5115443;28;20155;-65
2020/12/13 03:58:08;;;;;;;48.17;36.30;;;8.90;99.90;;;;;;5114354;28;20161;-65
2020/12/13 04:00:34;;;;;;;53.77;36.03;;;8.90;99.90;;;;;;5101967;28;20508;-65
2020/12/13 04:03:04;;;;;;;52.07;37.30;;;9.00;99.90;;;;;;5093729;28;20164;-65
2020/12/13 04:05:32;;;;;;;56.83;37.23;;;9.00;99.90;;;;;;5094862;28;20456;-65
2020/12/13 04:07:58;;;;;;;55.03;37.33;;;8.90;99.90;;;;;;5094668;28;20417;-65
2020/12/13 04:10:25;;;;;;;58.50;37.90;;;8.90;99.90;;;;;;5095319;28;21048;-65
2020/12/13 04:12:51;;;;;;;52.67;36.10;;;9.00;99.90;;;;;;5094913;28;20153;-65
2020/12/13 04:15:16;;;;;;;53.20;39.40;;;8.90;99.90;;;;;;5093407;28;20405;-65
2020/12/13 04:17:42;;;;;;;49.87;35.57;;;8.90;99.90;;;;;;5094660;28;20579;-65
2020/12/13 04:20:08;;;;;;;48.90;34.93;;;9.00;99.90;;;;;;5094647;28;20203;-65
2020/12/13 04:22:34;;;;;;;49.13;34.57;;;8.90;99.90;;;;;;5110242;28;20608;-65
2020/12/13 04:24:59;;;;;;;46.40;33.67;;;9.00;99.90;;;;;;5114885;28;20483;-65
2020/12/13 04:27:25;;;;;;;47.67;36.80;;;8.90;99.90;;;;;;5098904;28;20502;-65
2020/12/13 04:29:51;;;;;;;47.50;33.67;;;9.00;99.90;;;;;;5094024;28;20159;-65
2020/12/13 04:32:17;;;;;;;46.87;35.20;;;9.00;99.90;;;;;;5094181;28;20393;-65
2020/12/13 04:34:42;;;;;;;44.47;33.43;;;8.90;99.90;;;;;;5094647;28;20171;-65
2020/12/13 04:37:08;;;;;;;44.53;34.40;;;9.00;99.90;;;;;;5094253;28;20571;-65
2020/12/13 04:39:34;;;;;;;48.53;33.20;;;8.90;99.90;;;;;;5094618;28;20628;-65
2020/12/13 04:42:01;;;;;;;44.97;33.37;;;9.00;99.90;;;;;;5094378;28;20389;-65
2020/12/13 04:44:28;;;;;;;43.93;32.37;;;8.90;99.90;;;;;;5094633;28;20249;-65
2020/12/13 04:46:54;;;;;;;44.00;33.23;;;9.00;99.90;;;;;;5093984;28;20389;-65
2020/12/13 04:49:23;;;;;;;38.60;30.70;;;9.00;99.90;;;;;;5094181;28;20391;-65
2020/12/13 04:51:50;;;;;;;44.60;32.97;;;9.00;99.90;;;;;;5105895;28;20187;-65
2020/12/13 04:54:27;;;;;;;44.23;31.03;;;9.00;99.90;;;;;;5114314;28;20422;-65
2020/12/13 04:56:54;;;;;;;47.00;33.03;;;8.90;99.90;;;;;;5114248;28;20895;-65
2020/12/13 04:59:19;;;;;;;44.37;32.43;;;9.00;99.90;;;;;;5114154;28;20395;-65
2020/12/13 05:01:46;;;;;;;46.50;33.30;;;9.00;99.90;;;;;;5096347;28;20409;-65
2020/12/13 05:04:13;;;;;;;46.43;32.43;;;8.90;99.90;;;;;;5092623;28;20271;-65
2020/12/13 05:06:41;;;;;;;42.97;31.60;;;9.00;99.90;;;;;;5094274;28;20833;-65
2020/12/13 05:09:09;;;;;;;44.83;32.07;;;8.90;99.90;;;;;;5093712;28;20768;-65
2020/12/13 05:11:37;;;;;;;45.87;32.50;;;9.00;99.90;;;;;;5093688;28;20879;-65
2020/12/13 05:14:03;;;;;;;41.67;31.73;;;8.90;99.90;;;;;;5093809;28;20390;-65
2020/12/13 05:16:29;;;;;;;44.47;30.80;;;8.90;99.90;;;;;;5093582;28;20451;-65
2020/12/13 05:18:54;;;;;;;44.67;32.33;;;8.90;99.90;;;;;;5094248;28;20261;-65
2020/12/13 05:21:21;;;;;;;43.93;31.57;;;8.90;99.90;;;;;;5095468;28;20564;-65
2020/12/13 05:23:48;;;;;;;45.13;31.97;;;8.90;99.90;;;;;;5093597;28;20216;-65
2020/12/13 05:26:16;;;;;;;46.80;31.73;;;8.90;99.90;;;;;;5093369;28;20531;-65
2020/12/13 05:28:47;;;;;;;37.60;29.47;;;8.90;99.90;;;;;;5092273;28;20441;-65
2020/12/13 05:31:16;;;;;;;35.00;27.10;;;8.90;99.90;;;;;;5093353;28;20455;-65
2020/12/13 05:33:45;;;;;;;34.13;27.93;;;8.90;99.90;;;;;;5094234;28;20449;-65
2020/12/13 05:36:12;;;;;;;34.33;26.10;;;8.90;99.90;;;;;;5093270;28;20421;-65
2020/12/13 05:38:40;;;;;;;39.53;28.30;;;8.90;99.90;;;;;;5093139;28;20381;-65
2020/12/13 05:41:07;;;;;;;37.53;28.63;;;8.90;99.90;;;;;;5093297;28;20390;-65
2020/12/13 05:43:42;;;;;;;43.40;29.80;;;8.90;99.90;;;;;;5093195;28;20404;-65
2020/12/13 05:53:59;;;;;;;37.20;28.73;;;8.80;99.90;;;;;;5110751;27;20514;-65
2020/12/13 05:56:25;;;;;;;40.50;29.57;;;8.80;99.90;;;;;;5110921;28;20754;-65
2020/12/13 05:58:52;;;;;;;41.50;30.10;;;8.80;99.90;;;;;;5110850;28;20166;-65
2020/12/13 06:01:23;;;;;;;40.90;30.40;;;8.80;99.90;;;;;;5093163;28;20220;-65
2020/12/13 06:03:52;;;;;;;38.87;29.20;;;8.80;99.90;;;;;;5089081;28;20386;-65
2020/12/13 06:06:22;;;;;;;42.27;28.70;;;8.80;99.90;;;;;;5089001;28;20874;-65
2020/12/13 06:11:48;;;;;;;43.03;29.60;;;8.80;99.90;;;;;;5131480;27;20512;-65
2020/12/13 06:16:56;;;;;;;40.07;28.63;;;8.80;99.90;;;;;;5131335;27;20504;-64
2020/12/13 06:19:24;;;;;;;37.23;28.37;;;8.70;99.90;;;;;;5129896;27;20391;-66
2020/12/13 06:21:50;;;;;;;37.57;26.77;;;8.70;99.90;;;;;;5121123;28;20825;-64
2020/12/13 06:24:16;;;;;;;38.10;28.30;;;8.70;99.90;;;;;;5109573;28;20394;-65
2020/12/13 06:26:42;;;;;;;32.77;25.00;;;8.70;99.90;;;;;;5111643;28;20419;-64
2020/12/13 06:29:08;;;;;;;36.80;25.57;;;8.70;99.90;;;;;;5110984;28;20394;-64
2020/12/13 06:31:36;;;;;;;34.63;25.27;;;8.70;99.90;;;;;;5109415;28;20390;-64
2020/12/13 06:34:03;;;;;;;35.40;26.43;;;8.70;99.90;;;;;;5110611;28;20798;-64
2020/12/13 06:36:30;;;;;;;36.43;24.60;;;8.70;99.90;;;;;;5110650;28;20500;-64
2020/12/13 06:38:57;;;;;;;29.03;23.00;;;8.70;99.90;;;;;;5110703;28;20394;-64
2020/12/13 06:41:25;;;;;;;32.27;24.80;;;8.70;99.90;;;;;;5110894;28;20395;-64
2020/12/13 06:44:00;;;;;;;27.57;23.40;;;8.70;99.90;;;;;;5109984;28;20425;-64
2020/12/13 06:46:26;;;;;;;27.67;22.90;;;8.70;99.90;;;;;;5110521;28;20477;-64
2020/12/13 06:48:53;;;;;;;26.00;21.50;;;8.70;99.90;;;;;;5110276;28;20503;-64
2020/12/13 06:54:05;;;;;;;22.77;19.70;;;8.70;99.90;;;;;;5111209;27;20516;-65
2020/12/13 06:56:32;;;;;;;22.80;20.27;;;8.70;99.90;;;;;;5111015;28;20391;-65
2020/12/13 06:58:59;;;;;;;21.40;16.37;;;8.70;99.90;;;;;;5108177;28;20400;-65
2020/12/13 07:01:30;;;;;;;17.60;15.80;;;8.70;99.90;;;;;;5089184;28;20389;-65
2020/12/13 07:03:58;;;;;;;18.97;15.90;;;8.70;99.90;;;;;;5090268;28;20389;-65
2020/12/13 07:06:43;;;;;;;20.27;16.73;;;8.70;99.90;;;;;;5090275;28;20388;-65
2020/12/13 07:09:12;;;;;;;15.47;13.83;;;8.70;99.90;;;;;;5090706;28;20939;-65
2020/12/13 07:11:40;;;;;;;16.10;14.43;;;8.70;99.90;;;;;;5090419;28;20419;-65
2020/12/13 07:14:09;;;;;;;16.50;14.47;;;8.70;99.90;;;;;;5090360;28;20404;-65
2020/12/13 07:16:37;;;;;;;15.13;13.43;;;8.70;99.90;;;;;;5090874;28;20409;-65
2020/12/13 07:19:08;;;;;;;16.77;13.93;;;8.70;99.90;;;;;;5090107;28;20377;-65
2020/12/13 07:21:34;;;;;;;15.43;13.83;;;8.60;99.90;;;;;;5095175;28;20428;-65
2020/12/13 07:24:00;;;;;;;15.00;13.50;;;8.60;99.90;;;;;;5092567;28;20399;-65
2020/12/13 07:26:28;;;;;;;16.77;14.17;;;8.60;99.90;;;;;;5110311;28;20416;-65
2020/12/13 07:28:55;;;;;;;18.80;15.37;;;8.60;99.90;;;;;;5110248;28;20391;-65
2020/12/13 07:31:23;;;;;;;19.27;16.67;;;8.60;99.90;;;;;;5109158;28;20477;-65
2020/12/13 07:33:49;;;;;;;22.93;19.87;;;8.60;99.90;;;;;;5099917;28;20448;-65
2020/12/13 07:36:15;;;;;;;21.07;17.57;;;8.50;99.90;;;;;;5089865;28;20438;-65
2020/12/13 07:38:41;;;;;;;21.90;19.00;;;8.60;99.90;;;;;;5090089;28;20159;-65
2020/12/13 07:41:16;;;;;;;27.00;19.83;;;8.60;99.90;;;;;;5089757;28;20620;-65
2020/12/13 07:43:52;;;;;;;26.73;22.27;;;8.60;99.90;;;;;;5089617;28;20392;-65
2020/12/13 07:46:18;;;;;;;26.17;23.07;;;8.60;99.90;;;;;;5089757;28;20943;-65
2020/12/13 07:48:44;;;;;;;30.03;24.67;;;8.60;99.90;;;;;;5089725;28;20394;-65
2020/12/13 07:51:10;;;;;;;28.10;23.60;;;8.60;99.90;;;;;;5091902;28;20529;-65
2020/12/13 07:53:35;;;;;;;30.30;25.00;;;8.50;99.90;;;;;;5089702;28;20209;-65
2020/12/13 07:56:01;;;;;;;29.87;25.83;;;8.50;99.90;;;;;;5088510;28;20396;-65
2020/12/13 07:58:26;;;;;;;29.50;25.27;;;8.50;99.90;;;;;;5087650;28;20151;-65
2020/12/13 08:00:52;;;;;;;29.30;24.43;;;8.50;99.90;;;;;;5088353;28;20175;-64
2020/12/13 08:03:17;;;;;;;32.73;23.90;;;8.50;99.90;;;;;;5088238;28;20155;-64
2020/12/13 08:05:44;;;;;;;29.10;24.50;;;8.50;99.90;;;;;;5075258;28;20527;-64
2020/12/13 08:08:10;;;;;;;28.30;21.63;;;8.50;99.90;;;;;;5077198;28;20207;-65
2020/12/13 08:10:36;;;;;;;25.57;21.40;;;8.50;99.90;;;;;;5076014;28;20420;-64
2020/12/13 08:13:06;;;;;;;26.37;23.00;;;8.50;99.90;;;;;;5072762;28;20441;-65
2020/12/13 08:15:32;;;;;;;25.10;21.80;;;8.50;99.90;;;;;;5075844;28;20576;-65
2020/12/13 08:18:04;;;;;;;27.77;22.80;;;8.50;99.90;;;;;;5075265;28;20467;-65
2020/12/13 08:20:32;;;;;;;31.27;24.67;;;8.50;99.90;;;;;;5075461;28;20657;-65
2020/12/13 08:23:01;;;;;;;28.83;24.30;;;8.50;99.90;;;;;;5093048;28;20431;-65
2020/12/13 08:25:27;;;;;;;27.20;22.17;;;8.40;99.90;;;;;;5078792;28;20444;-65
2020/12/13 08:27:56;;;;;;;29.13;23.27;;;8.50;99.90;;;;;;5075127;28;20432;-65
2020/12/13 08:30:24;;;;;;;29.20;23.73;;;8.40;99.90;;;;;;5075304;28;20433;-64
2020/12/13 08:32:52;;;;;;;27.80;22.73;;;8.40;99.90;;;;;;5073929;28;21038;-64
2020/12/13 08:35:18;;;;;;;25.57;22.87;;;8.40;99.90;;;;;;5073865;28;20464;-64
2020/12/13 08:38:01;;;;;;;31.00;22.50;;;8.40;99.90;;;;;;5073643;28;20424;-64
2020/12/13 08:40:44;;;;;;;28.47;21.90;;;8.40;99.90;;;;;;5074722;28;20477;-65
2020/12/13 08:43:17;;;;;;;25.30;22.10;;;8.40;99.90;;;;;;5074373;28;20392;-64
2020/12/13 08:45:51;;;;;;;25.87;21.03;;;8.40;99.90;;;;;;5075121;28;20426;-64
2020/12/13 08:48:24;;;;;;;27.37;22.23;;;8.40;99.90;;;;;;5074115;28;20405;-64
2020/12/13 08:51:07;;;;;;;26.27;21.17;;;8.40;99.90;;;;;;5057502;28;20425;-64
2020/12/13 08:53:32;;;;;;;27.73;21.00;;;8.40;99.90;;;;;;5074639;28;20460;-64
2020/12/13 08:56:08;;;;;;;27.03;20.20;;;8.40;99.90;;;;;;5075261;28;20398;-64
2020/12/13 08:58:57;;;;;;;22.43;20.00;;;8.40;99.90;;;;;;5081446;28;20627;-64
2020/12/13 09:01:26;;;;;;;24.63;19.00;;;8.40;99.90;;;;;;5073568;28;20505;-64
2020/12/13 09:03:52;;;;;;;20.03;18.00;;;8.40;99.90;;;;;;5075198;28;20406;-64
2020/12/13 09:06:34;;;;;;;24.97;19.63;;;8.40;99.90;;;;;;5074572;28;20395;-64
2020/12/13 09:09:08;;;;;;;26.40;19.20;;;8.50;99.90;;;;;;5073875;28;20663;-64
2020/12/13 09:11:34;;;;;;;20.50;17.70;;;8.50;99.90;;;;;;5073175;28;20538;-64
2020/12/13 09:14:00;;;;;;;26.43;17.67;;;8.50;99.90;;;;;;5074316;28;20524;-64
2020/12/13 09:16:28;;;;;;;23.37;17.50;;;8.60;99.90;;;;;;5074037;28;20175;-65
2020/12/13 09:19:11;;;;;;;17.90;16.07;;;8.50;99.90;;;;;;5075042;28;20581;-64
2020/12/13 09:21:42;;;;;;;18.43;16.00;;;8.60;99.90;;;;;;5076196;28;20450;-64
2020/12/13 09:24:07;;;;;;;21.67;16.70;;;8.60;99.90;;;;;;5074613;28;20474;-64
2020/12/13 09:26:33;;;;;;;25.67;16.50;;;8.60;99.90;;;;;;5074375;28;20764;-64
2020/12/13 09:28:58;;;;;;;19.83;17.73;;;8.60;99.90;;;;;;5074102;28;20251;-64
2020/12/13 09:31:24;;;;;;;23.80;16.87;;;8.60;99.90;;;;;;5074406;28;20219;-64
2020/12/13 09:33:49;;;;;;;18.43;14.93;;;8.60;99.90;;;;;;5092330;28;20203;-64
2020/12/13 09:36:15;;;;;;;23.57;15.80;;;8.50;99.90;;;;;;5094153;28;20170;-64
2020/12/13 09:38:40;;;;;;;19.53;15.43;;;8.50;99.90;;;;;;5094168;28;20190;-64
2020/12/13 09:41:06;;;;;;;16.80;14.80;;;8.50;99.90;;;;;;5094075;28;20210;-64
2020/12/13 09:43:31;;;;;;;20.27;14.97;;;8.50;99.90;;;;;;5094116;28;20167;-64
2020/12/13 09:45:57;;;;;;;17.43;15.53;;;8.50;99.90;;;;;;5094300;28;20164;-64
2020/12/13 09:48:22;;;;;;;19.80;14.70;;;8.50;99.90;;;;;;5094211;28;20154;-64
2020/12/13 09:50:47;;;;;;;18.87;14.63;;;8.50;99.90;;;;;;5086751;28;20718;-64
2020/12/13 09:53:13;;;;;;;16.27;14.00;;;8.60;99.90;;;;;;5073357;28;20209;-64
2020/12/13 09:55:39;;;;;;;17.77;14.53;;;8.60;99.90;;;;;;5073798;28;20166;-64
2020/12/13 09:58:05;;;;;;;17.27;13.80;;;8.50;99.90;;;;;;5073534;28;20151;-64
2020/12/13 10:00:30;;;;;;;16.93;13.60;;;8.60;99.90;;;;;;5073859;28;20672;-64
2020/12/13 10:02:56;;;;;;;20.37;14.63;;;8.60;99.90;;;;;;5073509;28;20488;-64
2020/12/13 10:05:28;;;;;;;18.00;13.20;;;8.60;99.90;;;;;;5073320;28;20166;-64
2020/12/13 10:10:41;;;;;;;17.33;15.50;;;8.70;99.90;;;;;;5092751;28;20396;-64
2020/12/13 10:13:07;;;;;;;15.80;14.20;;;8.70;99.90;;;;;;5092216;28;20440;-64
2020/12/13 10:15:32;;;;;;;22.17;16.37;;;8.70;99.90;;;;;;5094059;28;20165;-64
2020/12/13 10:17:58;;;;;;;19.00;15.50;;;8.80;99.90;;;;;;5094110;28;20155;-64
2020/12/13 10:20:23;;;;;;;19.67;17.60;;;8.80;99.90;;;;;;5090757;28;20182;-64
2020/12/13 10:22:49;;;;;;;16.33;14.63;;;8.90;99.90;;;;;;5074645;28;20171;-64
2020/12/13 10:25:14;;;;;;;18.77;15.17;;;8.90;99.90;;;;;;5093383;28;20580;-64
2020/12/13 10:27:40;;;;;;;16.53;14.77;;;9.00;99.90;;;;;;5093292;28;20208;-65
2020/12/13 10:30:05;;;;;;;17.30;15.27;;;9.10;99.90;;;;;;5094047;28;20166;-64
2020/12/13 10:32:31;;;;;;;19.63;14.30;;;9.10;99.90;;;;;;5093192;28;20529;-64
2020/12/13 10:34:56;;;;;;;20.53;15.87;;;9.20;99.90;;;;;;5093327;28;20165;-64
2020/12/13 10:37:22;;;;;;;16.20;14.60;;;9.20;99.90;;;;;;5093227;28;20151;-64
2020/12/13 10:39:47;;;;;;;16.90;15.10;;;9.30;99.90;;;;;;5092368;28;20507;-64
2020/12/13 10:42:12;;;;;;;15.30;12.90;;;9.20;99.90;;;;;;5093287;28;20616;-64
2020/12/13 10:44:38;;;;;;;15.23;13.63;;;9.30;99.90;;;;;;5093418;28;20272;-65
2020/12/13 10:47:04;;;;;;;15.07;13.23;;;9.30;99.90;;;;;;5093211;28;20241;-64
2020/12/13 10:49:29;;;;;;;19.07;13.77;;;9.30;99.90;;;;;;5093241;28;20279;-64
2020/12/13 10:51:55;;;;;;;16.93;12.80;;;9.40;99.90;;;;;;5075054;28;20325;-64
2020/12/13 10:54:20;;;;;;;14.27;12.67;;;9.40;99.90;;;;;;5072729;28;20170;-64
2020/12/13 10:56:46;;;;;;;16.43;12.60;;;9.40;99.90;;;;;;5074105;28;20155;-64
2020/12/13 10:59:11;;;;;;;15.20;11.07;;;9.40;99.90;;;;;;5093207;28;20237;-65
2020/12/13 11:01:37;;;;;;;15.63;13.10;;;9.50;99.90;;;;;;5092947;28;20238;-65
2020/12/13 11:04:02;;;;;;;15.10;11.97;;;9.50;99.90;;;;;;5093192;28;20158;-64
2020/12/13 11:06:29;;;;;;;15.03;12.33;;;9.50;99.90;;;;;;5092915;28;20183;-65
2020/12/13 11:08:54;;;;;;;15.97;11.80;;;9.50;99.90;;;;;;5093103;28;20155;-65
2020/12/13 11:11:21;;;;;;;15.93;12.70;;;9.50;99.90;;;;;;5093203;28;20416;-65
2020/12/13 11:13:47;;;;;;;16.33;11.47;;;9.50;99.90;;;;;;5090362;28;20274;-65
2020/12/13 11:16:12;;;;;;;12.60;10.70;;;9.60;99.90;;;;;;5092775;28;20962;-65
2020/12/13 11:18:39;;;;;;;15.80;13.17;;;9.50;99.90;;;;;;5092681;28;20155;-66
2020/12/13 11:21:04;;;;;;;13.40;11.10;;;9.60;99.90;;;;;;5091851;28;20549;-66
2020/12/13 11:23:30;;;;;;;13.70;11.73;;;9.60;99.90;;;;;;5092915;28;20393;-65
2020/12/13 11:25:55;;;;;;;12.57;10.53;;;9.60;99.90;;;;;;5092686;28;20522;-66
2020/12/13 11:28:21;;;;;;;12.27;10.33;;;9.70;99.90;;;;;;5092835;28;20518;-66
2020/12/13 11:30:47;;;;;;;10.50;9.40;;;9.70;99.90;;;;;;5091355;28;20159;-64
2020/12/13 11:33:12;;;;;;;13.30;10.33;;;9.70;99.90;;;;;;5072386;28;20269;-65
2020/12/13 11:35:38;;;;;;;14.50;10.50;;;9.70;99.90;;;;;;5072231;28;20151;-65
2020/12/13 11:38:04;;;;;;;13.77;10.57;;;9.70;99.90;;;;;;5072390;28;20213;-65
2020/12/13 11:40:29;;;;;;;14.50;10.20;;;9.60;99.90;;;;;;5074743;28;20160;-64
2020/12/13 11:42:55;;;;;;;12.93;10.53;;;9.60;99.90;;;;;;5076070;28;20259;-65
2020/12/13 11:45:20;;;;;;;13.60;10.10;;;9.60;99.90;;;;;;5075944;28;20635;-65
2020/12/13 11:47:47;;;;;;;10.73;9.30;;;9.60;99.90;;;;;;5076361;28;20238;-65
2020/12/13 11:50:12;;;;;;;12.93;10.30;;;9.60;99.90;;;;;;5079746;28;20261;-65
2020/12/13 11:52:39;;;;;;;12.13;10.80;;;9.60;99.90;;;;;;5096369;28;20912;-65
2020/12/13 11:55:05;;;;;;;12.63;10.13;;;9.70;99.90;;;;;;5096639;28;20639;-65
2020/12/13 11:57:31;;;;;;;9.70;7.97;;;9.70;99.90;;;;;;5096207;28;20397;-65
2020/12/13 11:59:56;;;;;;;10.23;9.00;;;9.70;99.90;;;;;;5095956;28;20451;-65
2020/12/13 12:02:22;;;;;;;10.93;9.17;;;9.80;99.90;;;;;;5096532;28;20249;-65
2020/12/13 12:04:47;;;;;;;10.90;8.30;;;9.80;99.90;;;;;;5094790;28;20684;-65
2020/12/13 12:07:13;;;;;;;13.77;9.03;;;9.80;99.90;;;;;;5075760;28;20182;-65
2020/12/13 12:09:39;;;;;;;11.37;7.73;;;9.70;99.90;;;;;;5075963;28;20152;-65
2020/12/13 12:12:04;;;;;;;8.23;7.43;;;9.60;99.90;;;;;;5075422;28;20159;-65
2020/12/13 12:14:30;;;;;;;9.30;8.17;;;9.60;99.90;;;;;;5075747;28;20632;-65
2020/12/13 12:16:56;;;;;;;10.10;8.53;;;9.60;99.90;;;;;;5075701;28;20170;-65
2020/12/13 12:19:21;;;;;;;12.93;7.63;;;9.60;99.90;;;;;;5075394;28;20152;-65
2020/12/13 12:21:50;;;;;;;10.77;8.10;;;9.60;99.90;;;;;;5077440;28;21016;-65
2020/12/13 12:24:17;;;;;;;10.90;6.80;;;9.60;99.90;;;;;;5096078;28;20549;-65
2020/12/13 12:26:43;;;;;;;10.07;7.37;;;9.60;99.90;;;;;;5094617;28;20755;-65
2020/12/13 12:29:09;;;;;;;7.70;6.90;;;9.50;99.90;;;;;;5095471;28;20401;-65
2020/12/13 12:31:36;;;;;;;7.90;7.10;;;9.50;99.90;;;;;;5094433;28;20270;-65
2020/12/13 12:34:01;;;;;;;9.63;8.00;;;9.40;99.90;;;;;;5094029;28;20494;-65
2020/12/13 12:36:28;;;;;;;10.10;8.30;;;9.40;99.90;;;;;;5095787;28;20405;-65
2020/12/13 12:38:54;;;;;;;8.60;7.40;;;9.40;99.90;;;;;;5094406;28;20178;-65
2020/12/13 12:41:21;;;;;;;9.50;7.53;;;9.40;99.90;;;;;;5095302;28;20485;-65
2020/12/13 12:43:48;;;;;;;10.47;7.63;;;9.40;99.90;;;;;;5095436;28;20866;-65
2020/12/13 12:46:14;;;;;;;10.03;7.03;;;9.30;99.90;;;;;;5093843;28;20392;-65
2020/12/13 12:48:40;;;;;;;7.97;7.10;;;9.30;99.90;;;;;;5095084;28;20401;-65
2020/12/13 12:51:08;;;;;;;10.83;7.90;;;9.30;99.90;;;;;;5080308;28;20421;-65
2020/12/13 12:53:34;;;;;;;8.10;7.10;;;9.30;99.90;;;;;;5073570;28;20457;-65
2020/12/13 12:55:59;;;;;;;9.63;6.73;;;9.30;99.90;;;;;;5077901;28;20572;-65
2020/12/13 12:58:28;;;;;;;8.63;6.37;;;9.30;99.90;;;;;;5094905;28;20364;-65